Time;durP1;ratioP1;P1;durP2;ratioP2;P2;SDS_P1;SDS_P2;PMS_P1;PMS_P2;Temp;Humidity;BMP_temperature;BMP_pressure;BME280_temperature;BME280_humidity;BME280_pressure;Samples;Min_cycle;Max_cycle;Signal;HPM_P1;HPM_P2
2022/04/13 00:00:15;;;;;;;7.15;5.32;;;13.10;97.90;;;;;;5026099;28;20072;-73
2022/04/13 00:02:41;;;;;;;9.57;5.43;;;13.30;97.60;;;;;;5023030;28;20060;-73
2022/04/13 00:05:08;;;;;;;6.55;5.13;;;13.30;97.50;;;;;;5025799;28;20049;-73
2022/04/13 00:07:34;;;;;;;8.95;5.25;;;13.30;97.60;;;;;;5024122;28;20038;-73
2022/04/13 00:10:00;;;;;;;8.18;5.95;;;13.30;97.60;;;;;;5014492;28;20029;-73
2022/04/13 00:12:26;;;;;;;7.82;5.70;;;13.30;97.70;;;;;;5025041;28;20047;-73
2022/04/13 00:14:51;;;;;;;7.60;5.15;;;13.30;98.10;;;;;;5026433;28;20484;-73
2022/04/13 00:17:17;;;;;;;10.52;6.05;;;13.20;98.00;;;;;;5024813;28;20041;-73
2022/04/13 00:19:43;;;;;;;9.45;5.63;;;13.20;97.90;;;;;;5024663;28;20244;-73
2022/04/13 00:22:09;;;;;;;7.90;5.82;;;13.20;98.20;;;;;;5024435;28;20099;-73
2022/04/13 00:24:34;;;;;;;8.10;6.00;;;13.20;97.90;;;;;;5026864;28;20045;-73
2022/04/13 00:27:00;;;;;;;6.95;5.32;;;13.10;98.50;;;;;;5024383;28;20587;-73
2022/04/13 00:29:30;;;;;;;10.45;6.70;;;13.00;98.60;;;;;;5027380;28;20535;-73
2022/04/13 00:31:58;;;;;;;8.68;5.95;;;13.00;98.70;;;;;;5024313;28;20049;-73
2022/04/13 00:34:24;;;;;;;7.85;5.85;;;13.00;98.80;;;;;;5023764;28;20534;-73
2022/04/13 00:36:50;;;;;;;7.38;5.90;;;12.90;99.00;;;;;;5023185;28;20402;-73
2022/04/13 00:39:16;;;;;;;13.23;6.32;;;12.80;99.20;;;;;;5024356;28;20044;-73
2022/04/13 00:41:41;;;;;;;8.43;6.00;;;12.90;99.30;;;;;;5023826;28;20041;-73
2022/04/13 00:44:10;;;;;;;6.40;5.32;;;12.70;99.50;;;;;;5024493;28;20500;-73
2022/04/13 00:46:36;;;;;;;8.90;5.75;;;12.70;99.60;;;;;;5023896;28;20060;-73
2022/04/13 00:49:04;;;;;;;8.43;5.80;;;12.70;99.70;;;;;;5023743;28;20029;-73
2022/04/13 00:51:30;;;;;;;8.95;5.95;;;12.60;99.70;;;;;;5026858;28;20133;-73
2022/04/13 00:53:58;;;;;;;10.80;6.20;;;12.60;99.90;;;;;;5031078;28;20119;-73
2022/04/13 00:56:27;;;;;;;10.00;6.47;;;12.60;99.90;;;;;;5034325;28;20057;-73
2022/04/13 00:59:04;;;;;;;9.18;6.00;;;12.70;99.80;;;;;;5026586;28;20098;-73
2022/04/13 01:01:30;;;;;;;11.63;6.78;;;12.70;99.70;;;;;;5027690;28;20565;-73
2022/04/13 01:03:58;;;;;;;12.25;6.30;;;12.80;99.60;;;;;;5028593;28;20085;-73
2022/04/13 01:06:24;;;;;;;9.32;6.70;;;12.90;99.60;;;;;;5029519;28;20184;-73
2022/04/13 01:08:50;;;;;;;11.50;6.68;;;12.90;99.40;;;;;;5011046;28;20339;-73
2022/04/13 01:11:17;;;;;;;11.30;6.95;;;13.00;99.30;;;;;;5028073;28;20771;-73
2022/04/13 01:13:43;;;;;;;11.15;6.63;;;13.10;99.20;;;;;;5029340;28;20072;-73
2022/04/13 01:16:10;;;;;;;12.23;7.38;;;13.10;99.10;;;;;;5026988;28;20095;-73
2022/04/13 01:18:35;;;;;;;13.02;6.70;;;13.20;99.00;;;;;;5027403;28;20111;-73
2022/04/13 01:21:01;;;;;;;9.40;6.65;;;13.20;98.90;;;;;;5028298;28;20491;-73
2022/04/13 01:23:28;;;;;;;13.27;7.03;;;13.20;99.00;;;;;;5027280;28;20128;-73
2022/04/13 01:25:55;;;;;;;10.40;7.15;;;13.20;99.00;;;;;;5027520;28;20042;-73
2022/04/13 01:28:23;;;;;;;12.18;7.40;;;13.20;99.00;;;;;;5026064;28;20514;-73
2022/04/13 01:30:49;;;;;;;11.68;7.20;;;13.20;99.00;;;;;;5039624;28;20265;-73
2022/04/13 01:33:15;;;;;;;9.35;7.50;;;13.10;99.00;;;;;;5025007;28;20036;-73
2022/04/13 01:35:41;;;;;;;11.48;7.00;;;13.10;99.00;;;;;;5027785;28;20041;-73
2022/04/13 01:38:07;;;;;;;15.82;7.28;;;13.10;99.10;;;;;;5027186;28;20042;-73
2022/04/13 01:40:33;;;;;;;9.05;7.25;;;13.10;99.20;;;;;;5026934;28;20284;-73
2022/04/13 01:42:59;;;;;;;10.27;6.85;;;13.00;99.20;;;;;;5027062;28;20079;-73
2022/04/13 01:45:24;;;;;;;13.68;7.25;;;13.00;99.20;;;;;;5026780;28;20458;-73
2022/04/13 01:47:51;;;;;;;10.05;7.82;;;12.90;99.30;;;;;;5024556;28;20178;-72
2022/04/13 01:50:19;;;;;;;14.20;7.35;;;12.90;99.30;;;;;;5043664;28;20057;-72
2022/04/13 01:52:49;;;;;;;10.10;7.05;;;12.90;99.60;;;;;;5010082;28;20051;-73
2022/04/13 01:55:15;;;;;;;9.27;7.65;;;12.90;99.40;;;;;;5027942;28;20095;-72
2022/04/13 01:57:42;;;;;;;12.95;7.93;;;12.80;99.50;;;;;;5027181;28;20039;-72
2022/04/13 02:00:10;;;;;;;9.40;7.30;;;12.80;99.60;;;;;;5028215;28;20047;-72
2022/04/13 02:02:37;;;;;;;10.13;7.60;;;12.70;99.70;;;;;;5027531;28;20033;-72
2022/04/13 02:05:04;;;;;;;10.73;7.85;;;12.70;99.90;;;;;;5025680;28;20150;-73
2022/04/13 02:07:29;;;;;;;13.73;7.93;;;12.70;99.90;;;;;;5026923;28;20045;-73
2022/04/13 02:09:56;;;;;;;10.68;8.27;;;12.70;99.90;;;;;;5024345;28;20099;-73
2022/04/13 02:12:22;;;;;;;12.55;7.75;;;12.60;99.90;;;;;;5024710;28;20568;-72
2022/04/13 02:14:48;;;;;;;12.00;7.07;;;12.60;99.90;;;;;;5026527;28;20084;-73
2022/04/13 02:17:16;;;;;;;10.10;7.68;;;12.60;99.90;;;;;;5017997;28;20056;-73
2022/04/13 02:19:43;;;;;;;12.38;7.70;;;12.60;99.90;;;;;;5026388;28;20049;-73
2022/04/13 02:22:09;;;;;;;10.68;7.80;;;12.50;99.90;;;;;;5026536;28;20064;-73
2022/04/13 02:24:36;;;;;;;10.50;8.23;;;12.50;99.90;;;;;;5025707;28;20530;-73
2022/04/13 02:27:04;;;;;;;11.25;7.82;;;12.50;99.90;;;;;;5032779;28;20045;-72
2022/04/13 02:29:30;;;;;;;13.48;8.07;;;12.40;99.90;;;;;;5026750;28;20033;-73
2022/04/13 02:31:56;;;;;;;11.85;8.20;;;12.40;99.90;;;;;;5025870;28;20041;-72
2022/04/13 02:34:21;;;;;;;12.20;8.20;;;12.40;99.90;;;;;;5027226;28;20050;-73
2022/04/13 02:36:47;;;;;;;12.68;8.25;;;12.40;99.90;;;;;;5057083;28;20045;-72
2022/04/13 02:39:13;;;;;;;10.00;7.57;;;12.40;99.90;;;;;;5024381;28;20382;-72
2022/04/13 02:41:39;;;;;;;11.65;7.47;;;12.30;99.90;;;;;;5025834;28;20495;-72
2022/04/13 02:44:05;;;;;;;14.73;8.05;;;12.20;99.90;;;;;;5027410;28;20042;-72
2022/04/13 02:46:31;;;;;;;15.45;8.40;;;12.30;99.90;;;;;;5030629;28;20045;-73
2022/04/13 02:48:56;;;;;;;12.82;8.25;;;12.20;99.90;;;;;;5025837;28;20056;-73
2022/04/13 02:51:22;;;;;;;12.55;8.27;;;12.20;99.90;;;;;;5025629;28;20067;-73
2022/04/13 02:53:48;;;;;;;13.27;8.43;;;12.20;99.90;;;;;;5024120;28;20044;-73
2022/04/13 02:56:14;;;;;;;12.15;7.75;;;12.20;99.90;;;;;;5025845;28;20034;-73
2022/04/13 02:58:39;;;;;;;12.50;8.07;;;12.20;99.90;;;;;;5025974;28;20628;-73
2022/04/13 03:01:06;;;;;;;16.17;8.80;;;12.20;99.90;;;;;;5019455;28;20086;-73
2022/04/13 03:03:33;;;;;;;12.32;8.50;;;12.10;99.90;;;;;;5026769;28;20053;-73
2022/04/13 03:05:59;;;;;;;14.40;7.88;;;12.10;99.90;;;;;;5026421;28;20072;-73
2022/04/13 03:08:24;;;;;;;14.43;9.35;;;12.10;99.90;;;;;;5013994;28;20558;-73
2022/04/13 03:10:50;;;;;;;10.52;8.27;;;12.10;99.90;;;;;;5024537;28;20049;-73
2022/04/13 03:13:16;;;;;;;14.07;8.02;;;12.00;99.90;;;;;;5041384;28;20041;-73
2022/04/13 03:15:41;;;;;;;15.63;8.13;;;12.00;99.90;;;;;;5008310;28;20041;-73
2022/04/13 03:18:07;;;;;;;16.50;8.43;;;12.00;99.90;;;;;;5028097;28;20044;-73
2022/04/13 03:20:34;;;;;;;12.65;8.70;;;12.00;99.90;;;;;;5027035;28;20516;-73
2022/04/13 03:23:03;;;;;;;10.80;8.13;;;12.00;99.90;;;;;;5026739;28;20172;-73
2022/04/13 03:25:29;;;;;;;11.95;7.85;;;11.90;99.90;;;;;;5025088;28;20048;-73
2022/04/13 03:27:55;;;;;;;13.57;8.57;;;11.90;99.90;;;;;;5024815;28;20037;-73
2022/04/13 03:30:22;;;;;;;11.88;8.32;;;11.90;99.90;;;;;;5026463;28;20045;-73
2022/04/13 03:32:50;;;;;;;12.57;9.05;;;11.90;99.90;;;;;;5024958;28;20037;-73
2022/04/13 03:35:15;;;;;;;15.25;8.50;;;11.80;99.90;;;;;;5025530;28;20037;-73
2022/04/13 03:37:41;;;;;;;14.90;8.80;;;11.80;99.90;;;;;;4998001;28;20454;-73
2022/04/13 03:40:10;;;;;;;12.95;8.38;;;11.80;99.90;;;;;;5024884;28;20046;-73
2022/04/13 03:42:36;;;;;;;14.32;8.80;;;11.80;99.90;;;;;;5041266;28;20104;-73
2022/04/13 03:45:04;;;;;;;11.88;9.27;;;11.80;99.90;;;;;;5025236;28;20084;-73
2022/04/13 03:47:30;;;;;;;15.35;9.80;;;11.70;99.90;;;;;;5024436;28;20478;-73
2022/04/13 03:49:55;;;;;;;13.60;9.82;;;11.70;99.90;;;;;;5023516;28;20605;-73
2022/04/13 03:52:22;;;;;;;13.02;9.43;;;11.70;99.90;;;;;;5026225;28;20553;-73
2022/04/13 03:54:48;;;;;;;14.18;9.43;;;11.70;99.90;;;;;;5022985;28;20053;-73
2022/04/13 03:57:13;;;;;;;12.10;8.98;;;11.70;99.90;;;;;;5005909;28;20056;-73
2022/04/13 03:59:39;;;;;;;16.00;10.05;;;11.70;99.90;;;;;;5023821;28;20037;-73
2022/04/13 04:02:05;;;;;;;12.40;8.93;;;11.70;99.90;;;;;;5009415;28;20048;-72
2022/04/13 04:04:30;;;;;;;11.55;9.45;;;11.70;99.90;;;;;;5013985;28;20072;-73
2022/04/13 04:06:56;;;;;;;13.38;9.02;;;11.60;99.90;;;;;;5025065;28;20057;-73
2022/04/13 04:09:22;;;;;;;14.75;10.07;;;11.70;99.90;;;;;;5025078;28;20116;-73
2022/04/13 04:11:48;;;;;;;17.23;10.13;;;11.70;99.90;;;;;;5024263;28;20034;-73
2022/04/13 04:14:13;;;;;;;14.63;9.80;;;11.60;99.90;;;;;;5023433;28;20033;-73
2022/04/13 04:16:39;;;;;;;16.95;10.20;;;11.70;99.90;;;;;;5024668;28;20706;-73
2022/04/13 04:19:05;;;;;;;18.98;10.85;;;11.70;99.90;;;;;;5026170;28;20052;-73
2022/04/13 04:21:31;;;;;;;15.38;10.45;;;11.70;99.90;;;;;;5024359;28;20033;-72
2022/04/13 04:23:56;;;;;;;16.75;10.48;;;11.70;99.90;;;;;;5023632;28;20096;-72
2022/04/13 04:26:22;;;;;;;14.95;10.63;;;11.70;99.90;;;;;;5020910;28;20554;-73
2022/04/13 04:28:48;;;;;;;15.00;10.10;;;11.80;99.90;;;;;;5024908;28;20042;-73
2022/04/13 04:31:19;;;;;;;17.80;10.50;;;11.80;99.90;;;;;;5028967;28;20034;-73
2022/04/13 04:33:45;;;;;;;15.07;10.38;;;11.80;99.90;;;;;;5027959;28;20580;-73
2022/04/13 04:36:11;;;;;;;17.20;10.80;;;11.80;99.90;;;;;;5026737;28;20117;-73
2022/04/13 04:38:37;;;;;;;20.13;10.20;;;11.80;99.90;;;;;;5028454;28;20482;-73
2022/04/13 04:41:03;;;;;;;17.08;10.43;;;11.80;99.90;;;;;;5028755;28;20038;-73
2022/04/13 04:43:29;;;;;;;15.75;10.38;;;11.80;99.90;;;;;;5028118;28;20502;-73
2022/04/13 04:45:55;;;;;;;16.95;10.93;;;11.80;99.90;;;;;;5025040;28;20235;-73
2022/04/13 04:48:20;;;;;;;17.98;11.07;;;11.70;99.90;;;;;;5027835;28;20038;-73
2022/04/13 04:50:46;;;;;;;16.45;10.25;;;11.70;99.90;;;;;;5025600;28;20487;-73
2022/04/13 04:53:12;;;;;;;18.13;10.98;;;11.60;99.90;;;;;;5025546;28;20041;-73
2022/04/13 04:55:37;;;;;;;13.55;10.18;;;11.60;99.90;;;;;;5019480;28;20068;-73
2022/04/13 04:58:03;;;;;;;18.67;11.55;;;11.50;99.90;;;;;;5008819;28;20067;-73
2022/04/13 05:00:35;;;;;;;16.73;12.18;;;11.50;99.90;;;;;;5026032;28;20072;-73
2022/04/13 05:03:00;;;;;;;17.05;11.07;;;11.50;99.90;;;;;;5025796;28;20045;-73
2022/04/13 05:05:26;;;;;;;17.77;11.82;;;11.50;99.90;;;;;;5025996;28;20046;-73
2022/04/13 05:07:52;;;;;;;17.70;10.85;;;11.50;99.90;;;;;;5029056;28;20045;-73
2022/04/13 05:10:18;;;;;;;16.02;10.93;;;11.50;99.90;;;;;;5028029;28;20379;-73
2022/04/13 05:12:53;;;;;;;16.10;11.02;;;11.50;99.90;;;;;;5027784;28;20059;-73
2022/04/13 05:15:19;;;;;;;17.50;11.07;;;11.50;99.90;;;;;;5027363;28;20334;-73
2022/04/13 05:17:45;;;;;;;17.17;11.30;;;11.40;99.90;;;;;;5027214;28;20039;-73
2022/04/13 05:20:11;;;;;;;23.10;11.35;;;11.40;99.90;;;;;;5026921;28;20042;-73
2022/04/13 05:22:37;;;;;;;16.40;10.93;;;11.40;99.90;;;;;;5028795;28;20039;-73
2022/04/13 05:25:11;;;;;;;22.25;12.50;;;11.40;99.90;;;;;;5026530;28;20041;-73
2022/04/13 05:27:37;;;;;;;23.52;10.93;;;11.40;99.90;;;;;;5027083;28;20037;-73
2022/04/13 05:30:04;;;;;;;17.55;11.70;;;11.40;99.90;;;;;;5026952;28;20037;-73
2022/04/13 05:32:31;;;;;;;16.98;11.90;;;11.60;99.90;;;;;;5009391;28;20041;-73
2022/04/13 05:35:01;;;;;;;20.85;12.63;;;11.40;99.90;;;;;;5026596;28;20042;-73
2022/04/13 05:37:28;;;;;;;19.40;12.02;;;11.50;99.90;;;;;;5027810;28;20110;-73
2022/04/13 05:39:54;;;;;;;17.40;11.55;;;11.50;99.90;;;;;;5025709;28;20766;-73
2022/04/13 05:42:21;;;;;;;17.45;12.90;;;11.60;99.90;;;;;;5028242;28;20029;-73
2022/04/13 05:44:47;;;;;;;19.83;12.75;;;11.60;99.90;;;;;;5025240;28;20084;-73
2022/04/13 05:47:13;;;;;;;22.80;13.45;;;11.70;99.90;;;;;;5026019;28;20076;-73
2022/04/13 05:49:38;;;;;;;20.00;13.13;;;11.70;99.90;;;;;;5026502;28;20076;-73
2022/04/13 05:52:04;;;;;;;20.83;12.85;;;11.80;99.90;;;;;;5026781;28;20558;-73
2022/04/13 05:54:30;;;;;;;21.58;13.32;;;11.90;99.90;;;;;;5029662;28;20037;-73
2022/04/13 05:56:55;;;;;;;20.48;13.55;;;12.00;99.90;;;;;;5025778;28;20044;-73
2022/04/13 05:59:21;;;;;;;23.40;14.38;;;12.10;99.90;;;;;;5027256;28;20040;-73
2022/04/13 06:01:47;;;;;;;23.52;14.43;;;12.10;99.90;;;;;;5023222;28;20084;-73
2022/04/13 06:04:12;;;;;;;23.10;14.13;;;12.20;99.90;;;;;;5027110;28;20041;-73
2022/04/13 06:06:38;;;;;;;23.52;14.43;;;12.30;99.90;;;;;;5025113;28;20497;-73
2022/04/13 06:09:05;;;;;;;24.63;14.23;;;12.30;99.90;;;;;;5010678;28;20349;-73
2022/04/13 06:11:30;;;;;;;19.52;14.02;;;12.60;99.90;;;;;;5024441;28;20465;-73
2022/04/13 06:13:56;;;;;;;20.33;13.73;;;12.40;99.90;;;;;;5026044;28;20034;-73
2022/04/13 06:16:22;;;;;;;22.25;13.50;;;12.40;99.90;;;;;;5028098;28;20048;-73
2022/04/13 06:18:47;;;;;;;19.33;13.02;;;12.50;99.90;;;;;;5027705;28;20103;-73
2022/04/13 06:21:13;;;;;;;28.35;14.38;;;12.50;99.90;;;;;;5026541;28;20499;-73
2022/04/13 06:23:39;;;;;;;23.05;14.13;;;12.50;99.90;;;;;;5025669;28;20053;-73
2022/04/13 06:26:05;;;;;;;24.67;14.32;;;12.60;99.90;;;;;;5028575;28;20056;-73
2022/04/13 06:28:30;;;;;;;18.15;13.73;;;12.60;99.90;;;;;;5032276;28;20376;-73
2022/04/13 06:30:56;;;;;;;22.00;13.57;;;12.70;99.90;;;;;;5025095;28;20033;-73
2022/04/13 06:33:22;;;;;;;21.35;14.23;;;12.70;99.90;;;;;;5028798;28;20043;-73
2022/04/13 06:35:47;;;;;;;25.30;13.77;;;12.70;99.90;;;;;;5026921;28;20103;-73
2022/04/13 06:38:13;;;;;;;22.52;14.38;;;12.70;99.90;;;;;;5028229;28;20045;-73
2022/04/13 06:40:39;;;;;;;19.33;12.88;;;12.70;99.90;;;;;;5030137;28;20029;-73
2022/04/13 06:43:05;;;;;;;20.85;14.00;;;12.80;99.90;;;;;;5030994;28;20471;-73
2022/04/13 06:45:30;;;;;;;27.50;14.45;;;12.80;99.90;;;;;;5030973;28;20511;-73
2022/04/13 06:47:56;;;;;;;19.75;13.63;;;12.90;99.90;;;;;;5030701;28;20516;-73
2022/04/13 06:50:22;;;;;;;21.50;13.55;;;13.00;99.90;;;;;;5030651;28;20034;-73
2022/04/13 06:52:48;;;;;;;23.95;14.90;;;13.10;99.90;;;;;;5030391;28;20391;-73
2022/04/13 06:55:13;;;;;;;27.70;15.05;;;13.20;99.90;;;;;;5029802;28;20494;-73
2022/04/13 06:57:40;;;;;;;21.85;14.82;;;13.40;99.90;;;;;;5030366;28;20036;-73
2022/04/13 07:00:11;;;;;;;19.58;14.63;;;13.40;99.90;;;;;;5029375;28;20550;-73
2022/04/13 07:02:38;;;;;;;22.52;13.98;;;13.50;99.90;;;;;;5014863;28;20509;-73
2022/04/13 07:05:04;;;;;;;21.75;13.13;;;13.70;99.90;;;;;;5030374;28;20053;-73
2022/04/13 07:07:30;;;;;;;23.38;14.15;;;13.80;99.90;;;;;;5016112;28;20180;-73
2022/04/13 07:09:56;;;;;;;27.88;13.90;;;14.00;99.90;;;;;;5029243;28;20121;-73
2022/04/13 07:12:22;;;;;;;20.42;12.32;;;14.10;99.90;;;;;;5030295;28;20033;-73
2022/04/13 07:14:48;;;;;;;20.50;13.32;;;14.20;99.90;;;;;;5029220;28;20620;-73
2022/04/13 07:17:13;;;;;;;19.50;12.95;;;14.30;99.90;;;;;;5028873;28;20048;-73
2022/04/13 07:19:39;;;;;;;17.23;12.20;;;14.40;99.90;;;;;;5030269;28;20037;-73
2022/04/13 07:22:05;;;;;;;23.13;12.45;;;14.50;99.90;;;;;;5029988;28;20041;-73
2022/04/13 07:24:31;;;;;;;19.33;11.30;;;14.60;99.90;;;;;;5030142;28;20037;-73
2022/04/13 07:26:57;;;;;;;21.42;11.73;;;15.00;99.90;;;;;;5029919;28;20037;-74
2022/04/13 07:29:23;;;;;;;21.42;11.45;;;15.50;99.90;;;;;;5026260;28;20035;-73
2022/04/13 07:31:49;;;;;;;17.25;10.70;;;15.90;99.90;;;;;;5030165;28;20426;-73
2022/04/13 07:34:14;;;;;;;15.38;10.68;;;16.10;99.90;;;;;;5028432;28;20045;-73
2022/04/13 07:36:40;;;;;;;13.90;10.40;;;16.40;99.90;;;;;;5029235;28;20081;-73
2022/04/13 07:39:06;;;;;;;13.45;9.40;;;16.90;99.90;;;;;;5029874;28;20037;-73
2022/04/13 07:41:32;;;;;;;13.30;9.05;;;17.20;99.90;;;;;;5023885;28;20063;-73
2022/04/13 07:43:58;;;;;;;13.20;9.38;;;17.70;99.90;;;;;;5023833;28;20128;-74
2022/04/13 07:46:27;;;;;;;11.90;7.80;;;18.00;99.90;;;;;;5019449;28;20117;-73
2022/04/13 07:48:54;;;;;;;11.20;7.90;;;18.20;99.90;;;;;;5018622;28;20069;-73
2022/04/13 07:51:20;;;;;;;10.32;7.22;;;18.30;99.90;;;;;;5027683;28;20038;-73
2022/04/13 07:53:46;;;;;;;10.32;8.07;;;18.60;99.90;;;;;;5029401;28;20079;-73
2022/04/13 07:56:12;;;;;;;12.13;8.55;;;18.70;99.90;;;;;;5028830;28;20081;-73
2022/04/13 07:58:37;;;;;;;11.73;7.43;;;18.80;99.90;;;;;;5028052;28;20145;-73
2022/04/13 08:01:03;;;;;;;13.10;7.95;;;18.50;99.80;;;;;;5027815;28;20072;-73
2022/04/13 08:03:29;;;;;;;12.55;7.68;;;18.30;99.80;;;;;;5026839;28;20033;-73
2022/04/13 08:05:55;;;;;;;16.85;7.43;;;17.80;99.90;;;;;;5024302;28;20510;-73
2022/04/13 08:08:21;;;;;;;13.07;7.35;;;17.40;99.90;;;;;;5018541;28;20117;-73
2022/04/13 08:10:46;;;;;;;9.85;6.75;;;17.00;99.90;;;;;;5019514;28;20113;-73
2022/04/13 08:13:12;;;;;;;7.75;6.05;;;16.80;99.90;;;;;;5027292;28;20560;-73
2022/04/13 08:15:38;;;;;;;10.43;6.25;;;17.00;99.90;;;;;;5018652;28;20046;-73
2022/04/13 08:18:04;;;;;;;9.32;6.65;;;17.10;99.90;;;;;;5025216;28;20037;-73
2022/04/13 08:20:30;;;;;;;11.27;6.40;;;17.30;99.90;;;;;;5029582;28;20152;-73
2022/04/13 08:22:57;;;;;;;9.68;5.93;;;17.50;99.90;;;;;;5028775;28;20029;-73
2022/04/13 08:25:23;;;;;;;8.30;5.85;;;17.70;99.90;;;;;;5029434;28;20475;-73
2022/04/13 08:27:48;;;;;;;10.95;6.25;;;17.90;99.90;;;;;;5028946;28;20084;-73
2022/04/13 08:30:14;;;;;;;11.13;5.88;;;18.30;99.90;;;;;;5028214;28;20091;-73
2022/04/13 08:32:41;;;;;;;8.48;5.75;;;18.30;99.90;;;;;;5028020;28;20068;-73
2022/04/13 08:35:09;;;;;;;8.77;6.53;;;17.90;99.90;;;;;;5028098;28;20045;-73
2022/04/13 08:37:35;;;;;;;7.65;5.93;;;17.60;99.90;;;;;;5028545;28;20100;-73
2022/04/13 08:40:02;;;;;;;9.65;6.47;;;17.40;99.90;;;;;;5027970;28;20056;-73
2022/04/13 08:42:50;;;;;;;11.80;6.30;;;17.30;99.90;;;;;;5029052;28;20045;-73
2022/04/13 08:45:19;;;;;;;9.82;7.10;;;17.20;99.90;;;;;;5028842;28;20503;-73
2022/04/13 08:47:47;;;;;;;9.63;6.28;;;17.30;99.90;;;;;;5029647;28;20065;-73
2022/04/13 08:50:13;;;;;;;7.53;6.05;;;17.50;99.90;;;;;;5044628;28;20116;-73
2022/04/13 08:52:40;;;;;;;10.70;6.47;;;17.40;99.90;;;;;;5029465;28;20128;-73
2022/04/13 08:55:09;;;;;;;15.65;7.35;;;17.40;99.90;;;;;;5029006;28;20037;-73
2022/04/13 08:57:41;;;;;;;9.95;6.78;;;17.30;99.90;;;;;;5029592;28;20056;-73
2022/04/13 09:00:13;;;;;;;12.30;6.93;;;17.40;99.90;;;;;;5028570;28;20350;-74
2022/04/13 09:02:48;;;;;;;12.35;7.60;;;17.60;99.90;;;;;;5028967;28;20029;-73
2022/04/13 09:05:28;;;;;;;13.25;7.85;;;17.90;99.90;;;;;;5028434;28;20045;-73
2022/04/13 09:08:23;;;;;;;12.73;8.32;;;18.10;99.90;;;;;;5029150;28;20178;-73
2022/04/13 09:10:53;;;;;;;15.73;7.80;;;17.90;99.90;;;;;;5027901;28;20049;-73
2022/04/13 09:13:26;;;;;;;12.18;7.45;;;17.90;99.90;;;;;;5029487;28;20041;-73
2022/04/13 09:15:53;;;;;;;21.88;7.35;;;17.90;99.90;;;;;;5029778;28;20060;-73
2022/04/13 09:18:19;;;;;;;13.95;7.85;;;17.70;99.90;;;;;;5030936;28;20403;-73
2022/04/13 09:20:44;;;;;;;13.68;7.93;;;17.80;99.90;;;;;;5029331;28;20040;-73
2022/04/13 09:23:13;;;;;;;12.70;7.50;;;17.90;99.90;;;;;;5032568;28;20045;-74
2022/04/13 09:25:40;;;;;;;13.50;7.85;;;17.90;99.90;;;;;;5018897;28;20078;-73
2022/04/13 09:28:06;;;;;;;13.27;8.23;;;18.00;99.90;;;;;;5032474;28;20048;-74
2022/04/13 09:30:33;;;;;;;11.20;7.82;;;18.00;99.90;;;;;;5032998;28;20037;-73
2022/04/13 09:33:01;;;;;;;11.77;7.57;;;18.10;99.90;;;;;;5031903;28;20526;-73
2022/04/13 09:35:30;;;;;;;10.80;6.68;;;18.00;99.90;;;;;;5032607;28;20064;-73
2022/04/13 09:38:00;;;;;;;10.52;6.50;;;17.90;99.90;;;;;;5031999;28;20112;-73
2022/04/13 09:40:40;;;;;;;11.32;6.90;;;17.90;99.90;;;;;;5030990;28;20077;-73
2022/04/13 09:43:14;;;;;;;12.82;6.82;;;18.10;99.90;;;;;;5031900;28;20120;-73
2022/04/13 09:45:45;;;;;;;11.88;5.95;;;18.40;99.90;;;;;;5030627;28;20128;-73
2022/04/13 09:48:13;;;;;;;10.63;6.05;;;18.70;99.90;;;;;;5032552;28;20099;-73
2022/04/13 09:50:41;;;;;;;11.18;6.97;;;19.10;99.90;;;;;;5031630;28;20037;-73
2022/04/13 09:53:08;;;;;;;9.18;6.15;;;19.50;99.00;;;;;;5031993;28;20060;-73
2022/04/13 09:55:51;;;;;;;12.00;5.55;;;19.60;99.20;;;;;;5013873;28;20037;-73
2022/04/13 09:58:32;;;;;;;9.63;5.82;;;19.30;99.30;;;;;;5032141;28;20069;-73
2022/04/13 10:01:02;;;;;;;8.30;5.43;;;18.60;99.60;;;;;;5030788;28;20041;-73
2022/04/13 10:03:28;;;;;;;10.38;6.28;;;18.60;99.90;;;;;;5031505;28;20072;-73
2022/04/13 10:05:58;;;;;;;10.95;6.50;;;18.50;99.90;;;;;;5026465;28;20046;-73
2022/04/13 10:08:30;;;;;;;13.88;6.50;;;18.60;99.90;;;;;;5038857;28;20068;-73
2022/04/13 10:11:00;;;;;;;12.00;7.88;;;18.90;99.90;;;;;;5027617;28;20399;-73
2022/04/13 10:13:31;;;;;;;14.10;8.75;;;19.20;99.90;;;;;;5021003;28;20041;-73
2022/04/13 10:15:58;;;;;;;14.95;9.38;;;19.40;99.90;;;;;;5031354;28;20510;-73
2022/04/13 10:18:24;;;;;;;19.50;6.82;;;19.60;99.60;;;;;;5031499;28;20449;-73
2022/04/13 10:20:50;;;;;;;12.13;7.70;;;20.00;99.40;;;;;;5029459;28;20057;-73
2022/04/13 10:23:16;;;;;;;14.68;7.35;;;20.10;99.10;;;;;;5030518;28;20117;-73
2022/04/13 10:25:43;;;;;;;11.63;7.20;;;20.30;99.00;;;;;;5028662;28;20041;-73
2022/04/13 10:28:12;;;;;;;11.70;6.93;;;20.20;98.70;;;;;;5016117;28;20674;-74
2022/04/13 10:30:42;;;;;;;9.10;6.85;;;20.00;98.60;;;;;;5022536;28;20494;-73
2022/04/13 10:33:12;;;;;;;7.82;5.70;;;20.10;98.10;;;;;;5028101;28;20045;-73
2022/04/13 10:35:40;;;;;;;9.48;6.45;;;20.00;98.40;;;;;;5023381;28;20114;-73
2022/04/13 10:38:07;;;;;;;10.30;6.57;;;19.80;98.30;;;;;;5030808;28;20056;-73
2022/04/13 10:40:39;;;;;;;12.13;6.20;;;19.60;98.60;;;;;;5030810;28;20042;-73
2022/04/13 10:43:07;;;;;;;11.68;6.93;;;19.50;98.60;;;;;;5029979;28;20056;-73
2022/04/13 10:45:34;;;;;;;10.60;6.30;;;19.30;98.50;;;;;;5030934;28;20037;-73
2022/04/13 10:48:10;;;;;;;9.07;5.85;;;19.30;98.60;;;;;;5030960;28;20045;-73
2022/04/13 10:50:41;;;;;;;10.32;6.45;;;18.90;99.10;;;;;;5030525;28;20048;-73
2022/04/13 10:53:38;;;;;;;8.05;6.10;;;19.00;99.20;;;;;;5031177;28;20037;-73
2022/04/13 10:56:06;;;;;;;11.52;6.57;;;18.80;99.00;;;;;;5030655;28;20045;-73
2022/04/13 10:58:44;;;;;;;10.07;6.35;;;18.50;99.50;;;;;;5031044;28;20052;-73
2022/04/13 11:01:12;;;;;;;8.57;6.07;;;18.70;99.50;;;;;;5030169;28;20094;-73
2022/04/13 11:03:38;;;;;;;13.00;6.05;;;18.90;99.40;;;;;;5030356;28;20469;-73
2022/04/13 11:06:06;;;;;;;8.07;6.30;;;18.90;99.00;;;;;;5030175;28;20054;-73
2022/04/13 11:08:46;;;;;;;11.38;6.80;;;18.80;99.10;;;;;;5016830;28;20033;-73
2022/04/13 11:11:21;;;;;;;8.95;6.32;;;18.80;99.30;;;;;;5030006;28;20045;-73
2022/04/13 11:13:48;;;;;;;9.23;7.20;;;18.60;99.70;;;;;;5030591;28;20042;-73
2022/04/13 11:16:20;;;;;;;9.00;5.90;;;18.70;99.60;;;;;;5030717;28;20115;-73
2022/04/13 11:19:04;;;;;;;8.97;6.17;;;18.60;99.60;;;;;;5021367;28;20075;-73
2022/04/13 11:21:30;;;;;;;9.15;6.00;;;18.50;99.70;;;;;;5030080;28;20038;-73
2022/04/13 11:23:56;;;;;;;7.95;5.40;;;18.50;99.70;;;;;;5029992;28;20049;-73
2022/04/13 11:26:34;;;;;;;10.13;6.28;;;18.50;99.70;;;;;;5029708;28;20029;-73
2022/04/13 11:29:21;;;;;;;9.18;6.50;;;18.40;99.90;;;;;;5030483;28;20092;-73
2022/04/13 11:32:02;;;;;;;9.07;6.18;;;18.50;99.90;;;;;;5029918;28;20510;-73
2022/04/13 11:34:39;;;;;;;10.07;6.05;;;18.30;99.90;;;;;;5030147;28;20065;-73
2022/04/13 11:37:07;;;;;;;11.55;6.38;;;18.30;99.90;;;;;;5029884;28;20037;-73
2022/04/13 11:39:57;;;;;;;10.13;6.05;;;18.10;99.90;;;;;;5029859;28;20560;-73
2022/04/13 11:42:25;;;;;;;8.07;6.00;;;18.30;99.90;;;;;;5019178;28;20259;-73
2022/04/13 11:45:11;;;;;;;9.48;6.38;;;18.30;99.90;;;;;;5029648;28;20045;-73
2022/04/13 11:47:43;;;;;;;9.27;6.35;;;18.30;99.90;;;;;;5017634;28;20128;-73
2022/04/13 11:50:19;;;;;;;12.60;6.50;;;18.30;99.90;;;;;;5029726;28;20040;-73
2022/04/13 11:52:52;;;;;;;10.27;6.85;;;18.10;99.90;;;;;;5029783;28;20033;-73
2022/04/13 11:55:31;;;;;;;11.70;6.03;;;18.00;99.90;;;;;;5014436;28;20511;-73
2022/04/13 11:58:08;;;;;;;10.18;6.50;;;18.00;99.90;;;;;;5029881;28;20045;-73
2022/04/13 12:00:50;;;;;;;8.20;6.22;;;18.00;99.90;;;;;;5026004;28;20053;-73
2022/04/13 12:03:25;;;;;;;9.35;6.75;;;17.90;99.90;;;;;;5020715;28;20465;-72
2022/04/13 12:06:11;;;;;;;11.98;6.28;;;17.90;99.90;;;;;;5029370;28;20487;-73
2022/04/13 12:08:40;;;;;;;10.07;6.20;;;17.80;99.90;;;;;;5028798;28;20541;-73
2022/04/13 12:11:11;;;;;;;10.10;5.43;;;17.90;99.90;;;;;;5029426;28;20104;-73
2022/04/13 12:13:48;;;;;;;7.05;4.75;;;17.90;99.90;;;;;;5029431;28;20041;-73
2022/04/13 12:16:28;;;;;;;7.90;4.78;;;18.00;99.90;;;;;;5029500;28;20100;-73
2022/04/13 12:18:59;;;;;;;6.63;4.50;;;18.10;99.90;;;;;;5029473;28;20518;-73
2022/04/13 12:21:26;;;;;;;9.75;4.75;;;18.20;99.90;;;;;;5028111;28;20081;-73
2022/04/13 12:23:53;;;;;;;7.78;4.35;;;18.20;99.50;;;;;;5029660;28;20041;-73
2022/04/13 12:26:32;;;;;;;19.85;5.05;;;18.30;99.40;;;;;;5029267;28;20542;-73
2022/04/13 12:29:00;;;;;;;7.03;4.15;;;18.40;98.60;;;;;;5028311;28;20037;-74
2022/04/13 12:31:27;;;;;;;7.78;4.07;;;18.30;98.20;;;;;;5028535;28;20033;-73
2022/04/13 12:34:00;;;;;;;9.25;4.68;;;18.30;98.40;;;;;;5015144;28;20494;-73
2022/04/13 12:36:25;;;;;;;;;;;18.30;98.50;;;;;;5028600;28;20041;-73
2022/04/13 12:38:54;;;;;;;17.50;5.20;;;18.30;98.70;;;;;;5029676;28;19963;-73